Time;durP1;ratioP1;P1;durP2;ratioP2;P2;SDS_P1;SDS_P2;PMS_P1;PMS_P2;Temp;Humidity;BMP_temperature;BMP_pressure;BME280_temperature;BME280_humidity;BME280_pressure;Samples;Min_cycle;Max_cycle;Signal;HPM_P1;HPM_P2
2022/05/10 00:00:25;;;;;;;11.30;4.30;;;;;;;11.39;48.11;98764.93;105273;1287;24094;-91
2022/05/10 00:03:06;;;;;;;10.20;4.60;;;;;;;11.40;48.01;98763.36;105189;1287;25263;-87
2022/05/10 00:05:39;;;;;;;8.20;4.70;;;;;;;11.40;47.95;98765.58;105248;1287;24485;-90
2022/05/10 00:08:12;;;;;;;11.30;4.60;;;;;;;11.40;47.91;98767.73;105190;1287;25320;-88
2022/05/10 00:10:41;;;;;;;10.30;4.60;;;;;;;11.39;47.78;98766.98;105262;1287;24442;-89
2022/05/10 00:13:09;;;;;;;9.20;5.10;;;;;;;11.37;47.70;98762.56;105208;1287;23228;-87
2022/05/10 00:15:39;;;;;;;9.40;5.10;;;;;;;11.36;47.61;98767.29;105237;1287;22742;-87
2022/05/10 00:18:11;;;;;;;9.80;4.80;;;;;;;11.35;47.63;98767.50;105048;1287;25432;-88
2022/05/10 00:20:41;;;;;;;13.50;4.60;;;;;;;11.33;47.64;98766.00;105211;1287;24388;-88
2022/05/10 00:23:09;;;;;;;8.80;4.70;;;;;;;11.31;47.47;98763.86;105335;1287;22571;-88
2022/05/10 00:25:38;;;;;;;9.30;4.70;;;;;;;11.29;47.69;98763.27;105434;1287;25435;-87
2022/05/10 00:28:06;;;;;;;9.00;5.20;;;;;;;11.27;47.58;98761.47;105167;1287;25358;-88
2022/05/10 00:30:34;;;;;;;10.40;4.50;;;;;;;11.24;47.52;98762.67;105020;1289;24884;-91
2022/05/10 00:33:02;;;;;;;8.40;4.90;;;;;;;11.23;47.43;98759.99;105012;1289;23530;-80
2022/05/10 00:35:33;;;;;;;9.50;4.90;;;;;;;11.21;47.30;98754.55;105235;1287;22567;-80
2022/05/10 00:38:03;;;;;;;8.80;4.70;;;;;;;11.20;47.35;98753.45;105206;1287;22711;-81
2022/05/10 00:40:34;;;;;;;9.50;5.00;;;;;;;11.18;47.14;98754.52;105462;1287;22690;-80
2022/05/10 00:43:09;;;;;;;21.20;5.40;;;;;;;11.15;47.22;98748.02;105234;1287;22584;-80
2022/05/10 00:45:37;;;;;;;;;;;;;;;11.12;47.17;98745.60;105107;1287;22595;-80
2022/05/10 00:48:14;;;;;;;10.30;4.40;;;;;;;11.09;47.12;98745.58;105204;1287;25321;-80
2022/05/10 00:51:03;;;;;;;7.90;4.70;;;;;;;11.07;47.03;98742.94;105048;1288;24220;-80
2022/05/10 00:53:44;;;;;;;7.10;4.70;;;;;;;11.06;46.92;98744.14;105275;1287;22542;-81
2022/05/10 00:56:39;;;;;;;8.50;5.00;;;;;;;11.03;46.97;98740.70;105257;1287;22743;-81
2022/05/10 00:59:14;;;;;;;10.80;5.00;;;;;;;11.01;46.67;98737.11;105246;1287;24286;-81
2022/05/10 01:01:44;;;;;;;10.80;4.70;;;;;;;10.98;46.65;98734.70;105150;1289;23788;-82
2022/05/10 01:04:32;;;;;;;9.20;4.80;;;;;;;10.97;46.57;98732.67;104837;1288;22898;-81
2022/05/10 01:07:15;;;;;;;8.20;4.40;;;;;;;10.95;46.44;98728.85;105168;1287;22718;-82
2022/05/10 01:10:03;;;;;;;13.00;5.10;;;;;;;10.92;46.66;98726.17;105166;1288;22583;-82
2022/05/10 01:12:44;;;;;;;11.20;5.00;;;;;;;10.89;46.47;98721.83;105181;1287;22707;-81
2022/05/10 01:15:19;;;;;;;11.80;4.60;;;;;;;10.86;46.37;98721.70;105146;1287;22603;-81
2022/05/10 01:17:47;;;;;;;8.90;4.80;;;;;;;10.83;46.38;98716.58;104966;1287;25482;-81
2022/05/10 01:20:19;;;;;;;11.00;4.40;;;;;;;10.81;46.31;98714.11;105155;1287;22666;-81
2022/05/10 01:23:09;;;;;;;7.50;4.20;;;;;;;10.80;46.15;98714.02;104846;1287;22572;-80
2022/05/10 01:25:51;;;;;;;11.30;4.50;;;;;;;10.77;46.23;98715.50;104825;1287;22791;-81
2022/05/10 01:28:59;;;;;;;7.60;4.80;;;;;;;10.74;45.92;98713.14;105539;1289;22736;-81
2022/05/10 01:33:29;;;;;;;9.40;5.00;;;;;;;10.69;46.05;98714.80;106297;1294;22562;-81
2022/05/10 01:34:38;;;;;;;7.60;5.30;;;;;;;10.67;46.02;98714.85;104192;1292;23155;-82
2022/05/10 01:37:15;;;;;;;10.40;4.70;;;;;;;10.64;45.91;98708.25;104177;1293;22718;-82
2022/05/10 01:39:59;;;;;;;10.70;4.70;;;;;;;10.65;45.69;98711.54;104149;1294;22557;-80
2022/05/10 01:42:37;;;;;;;11.30;4.80;;;;;;;10.62;45.63;98710.32;104178;1294;22581;-80
2022/05/10 01:45:28;;;;;;;8.20;4.20;;;;;;;10.59;45.54;98705.95;104258;1294;25346;-80
2022/05/10 01:48:00;;;;;;;12.30;4.50;;;;;;;10.56;45.55;98703.60;104349;1294;22689;-81
2022/05/10 01:50:49;;;;;;;7.70;4.10;;;;;;;10.54;45.47;98702.80;104348;1297;25381;-81
2022/05/10 01:53:24;;;;;;;8.00;4.50;;;;;;;10.52;45.11;98699.80;104295;1294;22722;-81
2022/05/10 01:56:01;;;;;;;9.70;4.30;;;;;;;10.51;45.16;98697.02;104365;1294;22581;-81
2022/05/10 01:58:32;;;;;;;8.60;4.50;;;;;;;10.49;45.02;98697.56;104379;1294;22563;-82
2022/05/10 02:01:06;;;;;;;8.10;3.90;;;;;;;10.47;45.10;98696.11;104344;1295;22586;-82
2022/05/10 02:03:42;;;;;;;11.70;3.80;;;;;;;10.44;44.96;98694.18;104279;1294;25663;-83
2022/05/10 02:06:26;;;;;;;9.10;4.30;;;;;;;10.41;45.18;98691.51;104339;1294;25392;-82
2022/05/10 02:09:12;;;;;;;11.40;4.80;;;;;;;10.37;45.19;98690.45;105242;1287;22562;-80
2022/05/10 02:11:47;;;;;;;7.60;4.60;;;;;;;10.34;44.87;98689.98;105022;1287;24336;-81
2022/05/10 02:14:40;;;;;;;11.30;3.90;;;;;;;10.31;45.07;98689.23;105023;1287;25940;-82
2022/05/10 02:17:32;;;;;;;8.90;4.10;;;;;;;10.28;45.26;98690.92;105299;1287;25378;-83
2022/05/10 02:20:17;;;;;;;10.70;4.00;;;;;;;10.24;45.30;98691.89;105558;1287;25928;-81
2022/05/10 02:22:54;;;;;;;10.90;4.50;;;;;;;10.20;45.27;98687.98;105242;1288;22880;-82
2022/05/10 02:25:37;;;;;;;13.40;4.50;;;;;;;10.15;45.33;98686.81;105248;1287;25262;-82
2022/05/10 02:28:11;;;;;;;12.60;4.30;;;;;;;10.11;45.37;98684.79;105266;1288;24391;-81
2022/05/10 02:30:44;;;;;;;12.00;4.30;;;;;;;10.06;45.44;98685.45;105052;1288;25670;-81
2022/05/10 02:33:14;;;;;;;10.10;4.60;;;;;;;10.02;45.44;98684.61;105258;1287;26817;-82
2022/05/10 02:35:49;;;;;;;11.60;5.80;;;;;;;9.97;45.30;98687.97;105220;1287;22582;-82
2022/05/10 02:38:24;;;;;;;6.70;5.50;;;;;;;9.91;45.58;98684.55;105320;1287;22703;-82
2022/05/10 02:40:55;;;;;;;;;;;;;;;9.86;45.70;98685.73;105253;1287;22702;-81
2022/05/10 02:43:30;;;;;;;10.90;5.80;;;;;;;9.82;45.83;98684.85;105253;1287;22748;-83
2022/05/10 02:45:58;;;;;;;8.20;6.20;;;;;;;9.75;46.00;98681.67;105196;1287;25398;-82
2022/05/10 02:48:27;;;;;;;8.60;6.70;;;;;;;9.68;45.88;98677.77;105202;1287;22734;-81
2022/05/10 02:50:55;;;;;;;7.70;5.40;;;;;;;9.60;45.87;98676.98;105183;1287;25454;-81
2022/05/10 02:53:24;;;;;;;7.50;5.10;;;;;;;9.51;46.26;98673.30;105233;1287;23282;-82
2022/05/10 02:56:24;;;;;;;8.60;4.70;;;;;;;9.44;45.96;98670.09;104950;1286;22574;-81
2022/05/10 02:58:58;;;;;;;7.80;4.50;;;;;;;9.39;46.44;98672.73;105280;1287;22580;-81
2022/05/10 03:01:48;;;;;;;9.90;4.40;;;;;;;9.35;46.60;98671.23;105233;1287;25401;-80
2022/05/10 03:04:22;;;;;;;6.40;4.60;;;;;;;9.30;46.48;98672.95;105274;1288;22718;-82
2022/05/10 03:06:50;;;;;;;18.10;5.80;;;;;;;9.26;46.49;98671.67;104885;1288;24448;-81
2022/05/10 03:09:18;;;;;;;6.90;4.50;;;;;;;9.23;46.37;98673.45;105246;1287;23346;-81
2022/05/10 03:11:46;;;;;;;8.40;5.50;;;;;;;9.21;46.65;98673.23;105272;1287;22637;-81
2022/05/10 03:14:14;;;;;;;8.00;5.10;;;;;;;9.17;46.74;98672.39;105269;1287;24435;-81
2022/05/10 03:16:42;;;;;;;7.20;4.30;;;;;;;9.14;46.97;98667.53;105220;1287;22549;-81
2022/05/10 03:19:10;;;;;;;10.50;4.90;;;;;;;9.13;46.77;98667.48;105261;1287;25663;-83
2022/05/10 03:21:39;;;;;;;7.00;4.60;;;;;;;9.10;47.32;98660.28;107836;1287;22677;-79
2022/05/10 03:24:08;;;;;;;11.60;5.10;;;;;;;9.08;46.95;98658.30;108470;1286;22617;-81
2022/05/10 03:26:36;;;;;;;10.30;4.40;;;;;;;9.06;47.18;98658.98;108284;1287;22667;-80
2022/05/10 03:29:04;;;;;;;9.40;5.10;;;;;;;9.04;47.50;98658.78;106252;1287;24262;-82
2022/05/10 03:31:32;;;;;;;12.40;5.10;;;;;;;9.01;47.58;98662.50;105924;1289;23108;-82
2022/05/10 03:36:47;;;;;;;7.60;4.40;;;;;;;8.94;47.71;98660.52;105693;1288;22733;-81
2022/05/10 03:39:16;;;;;;;10.00;4.80;;;;;;;8.91;47.93;98659.75;105424;1288;22631;-82
2022/05/10 03:41:44;;;;;;;16.00;5.90;;;;;;;8.88;48.23;98656.91;105215;1287;22573;-83
2022/05/10 03:44:12;;;;;;;12.20;4.70;;;;;;;8.85;48.25;98653.64;105294;1287;22648;-80
2022/05/10 03:46:40;;;;;;;8.80;4.90;;;;;;;8.83;48.29;98653.48;105240;1289;22565;-80
2022/05/10 03:49:08;;;;;;;8.30;4.70;;;;;;;8.81;48.27;98651.73;104931;1287;24280;-82
2022/05/10 03:51:36;;;;;;;9.30;5.20;;;;;;;8.79;48.39;98654.80;105251;1289;22570;-81
2022/05/10 03:54:04;;;;;;;7.40;4.90;;;;;;;8.79;48.64;98653.29;104857;1289;25571;-82
2022/05/10 03:56:34;;;;;;;9.60;4.80;;;;;;;8.80;49.11;98650.73;105384;1287;23441;-84
2022/05/10 03:59:02;;;;;;;8.10;4.90;;;;;;;8.83;48.70;98648.09;105335;1287;22668;-81
2022/05/10 04:01:31;;;;;;;10.40;4.80;;;;;;;8.85;49.04;98650.89;105343;1287;22609;-82
2022/05/10 04:04:01;;;;;;;10.10;5.40;;;;;;;8.89;48.98;98648.90;105352;1287;22754;-85
2022/05/10 04:06:30;;;;;;;6.50;5.00;;;;;;;8.92;49.17;98648.57;105408;1287;25260;-81
2022/05/10 04:08:58;;;;;;;11.10;5.00;;;;;;;8.95;49.28;98649.66;105873;1288;22617;-82
2022/05/10 04:11:29;;;;;;;9.20;4.90;;;;;;;8.97;49.28;98649.16;105280;1288;22580;-84
2022/05/10 04:14:00;;;;;;;8.30;5.60;;;;;;;9.01;49.56;98648.20;105251;1288;22557;-84
2022/05/10 04:16:29;;;;;;;25.90;5.10;;;;;;;9.03;49.42;98644.11;107429;1286;22691;-80
2022/05/10 04:18:57;;;;;;;11.40;5.30;;;;;;;9.07;49.71;98644.92;107405;1287;25324;-81
2022/05/10 04:21:27;;;;;;;12.80;5.50;;;;;;;9.12;49.77;98644.86;105272;1287;22551;-81
2022/05/10 04:23:55;;;;;;;11.70;5.50;;;;;;;9.17;50.02;98641.95;104805;1287;24301;-82
2022/05/10 04:26:23;;;;;;;10.70;5.00;;;;;;;9.21;49.77;98641.02;105170;1287;22645;-81
2022/05/10 04:28:51;;;;;;;8.90;5.40;;;;;;;9.26;50.34;98641.93;105198;1287;22592;-81
2022/05/10 04:31:20;;;;;;;11.20;5.20;;;;;;;9.29;50.16;98642.47;105233;1287;22544;-81
2022/05/10 04:33:48;;;;;;;9.30;5.80;;;;;;;9.33;50.34;98641.53;104846;1289;22742;-82
2022/05/10 04:36:16;;;;;;;7.10;5.00;;;;;;;9.37;50.49;98645.29;105286;1287;23976;-81
2022/05/10 04:38:46;;;;;;;9.50;5.40;;;;;;;9.42;50.65;98646.63;104889;1289;25332;-82
2022/05/10 04:41:26;;;;;;;7.20;4.70;;;;;;;9.47;50.51;98650.06;105187;1288;22601;-82
2022/05/10 04:43:58;;;;;;;11.10;5.50;;;;;;;9.53;50.25;98652.42;104957;1287;25270;-82
2022/05/10 04:46:27;;;;;;;7.00;4.90;;;;;;;9.60;50.71;98652.98;105296;1288;22566;-81
2022/05/10 04:48:56;;;;;;;11.50;5.30;;;;;;;9.65;50.62;98651.73;104887;1288;22611;-81
2022/05/10 04:51:25;;;;;;;9.40;5.20;;;;;;;9.71;50.69;98649.78;105274;1287;25326;-82
2022/05/10 04:53:53;;;;;;;7.80;5.70;;;;;;;9.78;50.93;98646.96;105233;1287;22568;-82
2022/05/10 04:56:22;;;;;;;10.10;5.70;;;;;;;9.85;50.94;98646.92;105243;1287;22594;-81
2022/05/10 04:58:54;;;;;;;9.70;5.80;;;;;;;9.90;50.54;98645.41;105194;1287;22588;-82
2022/05/10 05:01:26;;;;;;;10.40;6.00;;;;;;;9.96;51.02;98646.67;105263;1287;25669;-81
2022/05/10 05:03:56;;;;;;;9.10;7.70;;;;;;;10.01;51.01;98643.73;104941;1287;25541;-80
2022/05/10 05:06:26;;;;;;;8.50;7.60;;;;;;;10.07;51.08;98643.93;105014;1287;22571;-83
2022/05/10 05:08:55;;;;;;;8.80;5.80;;;;;;;10.13;51.28;98642.23;105278;1287;22574;-83
2022/05/10 05:11:24;;;;;;;8.90;6.50;;;;;;;10.19;51.05;98644.30;105327;1287;24206;-82
2022/05/10 05:13:53;;;;;;;9.60;6.60;;;;;;;10.25;51.31;98646.38;105461;1287;24280;-81
2022/05/10 05:16:21;;;;;;;10.80;6.20;;;;;;;10.31;51.21;98643.67;105567;1288;22714;-83
2022/05/10 05:18:50;;;;;;;10.10;5.90;;;;;;;10.38;51.38;98648.70;105423;1287;23962;-83
2022/05/10 05:21:19;;;;;;;11.40;7.50;;;;;;;10.46;51.21;98649.02;105493;1288;23593;-82
2022/05/10 05:23:47;;;;;;;12.50;7.40;;;;;;;10.55;51.16;98651.60;104911;1290;22720;-83
2022/05/10 05:26:15;;;;;;;10.20;6.10;;;;;;;10.62;51.47;98650.31;105288;1287;22626;-82
2022/05/10 05:28:43;;;;;;;11.20;7.20;;;;;;;10.69;51.33;98651.45;105323;1288;22560;-82
2022/05/10 05:31:13;;;;;;;11.90;8.10;;;;;;;10.76;51.38;98652.42;105295;1287;22622;-82
2022/05/10 05:33:45;;;;;;;12.40;7.00;;;;;;;10.84;51.49;98657.20;105363;1286;25313;-82
2022/05/10 05:36:14;;;;;;;12.40;7.40;;;;;;;10.93;51.28;98656.92;105306;1287;24547;-83
2022/05/10 05:38:44;;;;;;;10.80;7.70;;;;;;;11.00;51.34;98658.11;105353;1288;22704;-82
2022/05/10 05:41:12;;;;;;;9.70;7.50;;;;;;;11.06;51.29;98662.05;105269;1288;22692;-83
2022/05/10 05:43:40;;;;;;;8.90;7.70;;;;;;;11.16;51.38;98660.08;105259;1288;22552;-83
2022/05/10 05:46:08;;;;;;;11.30;8.10;;;;;;;11.24;51.41;98663.50;105216;1288;22725;-83
2022/05/10 05:48:37;;;;;;;13.80;8.10;;;;;;;11.31;51.42;98666.84;105268;1287;25430;-83
2022/05/10 05:51:05;;;;;;;9.20;7.60;;;;;;;11.41;51.41;98665.06;105262;1288;24219;-82
2022/05/10 05:53:33;;;;;;;12.10;8.10;;;;;;;11.50;51.38;98663.95;105223;1287;22862;-81
2022/05/10 05:56:11;;;;;;;11.50;7.60;;;;;;;11.59;51.33;98664.89;105177;1287;22701;-81
2022/05/10 05:58:39;;;;;;;12.50;7.50;;;;;;;11.66;51.31;98662.83;105284;1287;25523;-82
2022/05/10 06:01:15;;;;;;;12.10;7.40;;;;;;;11.75;51.43;98666.23;105217;1287;22657;-83
2022/05/10 06:03:43;;;;;;;12.30;7.60;;;;;;;11.85;51.37;98660.84;104997;1287;22577;-82
2022/05/10 06:06:12;;;;;;;14.30;7.90;;;;;;;11.97;51.39;98666.44;105206;1287;24371;-80
2022/05/10 06:08:44;;;;;;;12.90;7.70;;;;;;;12.08;51.39;98666.99;105310;1287;22550;-82
2022/05/10 06:11:13;;;;;;;13.30;6.90;;;;;;;12.19;51.23;98664.75;105187;1287;22647;-81
2022/05/10 06:13:41;;;;;;;9.90;7.00;;;;;;;12.29;51.22;98667.92;105235;1287;22733;-81
2022/05/10 06:16:09;;;;;;;17.70;7.10;;;;;;;12.40;51.29;98664.64;105264;1287;22701;-83
2022/05/10 06:18:37;;;;;;;10.70;7.10;;;;;;;12.53;51.16;98665.92;105205;1287;25487;-82
2022/05/10 06:21:05;;;;;;;12.40;7.00;;;;;;;12.66;51.06;98664.58;104967;1288;22905;-82
2022/05/10 06:23:33;;;;;;;11.50;6.70;;;;;;;12.76;51.02;98665.30;104877;1287;23947;-83
2022/05/10 06:26:01;;;;;;;9.20;6.10;;;;;;;12.87;51.07;98661.21;104903;1287;25025;-82
2022/05/10 06:28:29;;;;;;;8.30;6.20;;;;;;;13.00;50.96;98662.33;104872;1287;25375;-83
2022/05/10 06:30:58;;;;;;;13.30;6.70;;;;;;;13.11;50.81;98665.29;104915;1287;22732;-82
2022/05/10 06:33:27;;;;;;;7.60;5.60;;;;;;;13.18;50.69;98663.73;105073;1287;24393;-82
2022/05/10 06:35:55;;;;;;;7.40;5.70;;;;;;;13.28;50.74;98664.58;104994;1291;23220;-83
2022/05/10 06:38:30;;;;;;;13.70;6.60;;;;;;;13.36;50.52;98662.87;105131;1287;24224;-82
2022/05/10 06:41:03;;;;;;;10.60;6.10;;;;;;;13.47;50.76;98659.06;104867;1289;22554;-82
2022/05/10 06:43:35;;;;;;;8.50;5.80;;;;;;;13.59;50.48;98659.25;105100;1287;22567;-81
2022/05/10 06:46:11;;;;;;;8.20;6.10;;;;;;;13.71;50.37;98663.53;104966;1288;23182;-82
2022/05/10 06:48:40;;;;;;;7.80;5.80;;;;;;;13.81;50.53;98663.65;105005;1289;22595;-83
2022/05/10 06:51:09;;;;;;;15.30;5.90;;;;;;;13.92;50.39;98661.07;105108;1287;22584;-83
2022/05/10 06:53:38;;;;;;;7.20;5.30;;;;;;;14.03;50.37;98660.95;105086;1287;23640;-83
2022/05/10 06:56:07;;;;;;;7.10;5.10;;;;;;;14.14;50.22;98658.77;105046;1287;22779;-83
2022/05/10 06:58:36;;;;;;;14.90;5.60;;;;;;;14.27;50.18;98651.01;105051;1289;22706;-83
2022/05/10 07:01:10;;;;;;;13.10;5.80;;;;;;;14.40;50.20;98656.37;105002;1287;25410;-82
2022/05/10 07:03:41;;;;;;;;;;;;;;;14.51;50.01;98654.89;104932;1289;22645;-81
2022/05/10 07:06:11;;;;;;;9.00;5.60;;;;;;;14.59;49.79;98655.70;104958;1287;22588;-81
2022/05/10 07:08:39;;;;;;;8.30;5.80;;;;;;;14.69;49.92;98655.36;104977;1287;23371;-81
2022/05/10 07:11:07;;;;;;;8.90;6.30;;;;;;;14.78;49.57;98657.38;104888;1287;23564;-81
2022/05/10 07:13:37;;;;;;;10.30;5.40;;;;;;;14.85;49.60;98655.20;104995;1287;22612;-82
2022/05/10 07:16:08;;;;;;;7.80;5.80;;;;;;;14.93;49.60;98656.19;104971;1291;22565;-80
2022/05/10 07:18:36;;;;;;;9.50;6.00;;;;;;;15.09;49.65;98658.70;105269;1288;22686;-82
2022/05/10 07:21:06;;;;;;;9.90;5.50;;;;;;;15.20;49.36;98658.63;105211;1287;22632;-83
2022/05/10 07:23:34;;;;;;;10.70;5.80;;;;;;;15.27;49.26;98659.05;105301;1287;22556;-83
2022/05/10 07:26:04;;;;;;;8.50;5.30;;;;;;;15.33;49.30;98656.33;105335;1288;25518;-82
2022/05/10 07:28:33;;;;;;;9.70;5.50;;;;;;;15.44;49.30;98657.46;104930;1289;22579;-82
2022/05/10 07:31:03;;;;;;;9.10;5.80;;;;;;;15.56;49.31;98657.25;105251;1287;24370;-83
2022/05/10 07:33:31;;;;;;;10.40;6.50;;;;;;;15.66;49.01;98657.48;105280;1288;22666;-82
2022/05/10 07:38:47;;;;;;;9.80;6.30;;;;;;;15.88;49.13;98661.17;105417;1287;22603;-80
2022/05/10 07:41:21;;;;;;;9.90;5.70;;;;;;;16.00;49.14;98657.00;105441;1287;22592;-81
2022/05/10 07:43:51;;;;;;;7.20;5.40;;;;;;;16.13;49.14;98657.54;105411;1287;25375;-81
2022/05/10 07:46:19;;;;;;;10.00;5.50;;;;;;;16.24;49.12;98654.84;105625;1287;22635;-82
2022/05/10 07:48:48;;;;;;;9.80;5.70;;;;;;;16.33;49.02;98655.52;105321;1287;22632;-83
2022/05/10 07:51:17;;;;;;;10.50;5.70;;;;;;;16.44;48.75;98654.72;105091;1287;24311;-83
2022/05/10 07:53:46;;;;;;;8.90;5.10;;;;;;;16.55;48.82;98649.34;105305;1287;24313;-83
2022/05/10 07:56:17;;;;;;;8.30;5.90;;;;;;;16.66;48.68;98651.33;105295;1286;22731;-83
2022/05/10 07:58:54;;;;;;;8.30;5.80;;;;;;;16.78;48.76;98652.44;105275;1287;25720;-81
2022/05/10 08:01:23;;;;;;;9.90;5.80;;;;;;;16.91;48.68;98649.81;105380;1287;25386;-82
2022/05/10 08:03:52;;;;;;;9.90;6.30;;;;;;;17.00;48.51;98652.86;105440;1287;24089;-83
2022/05/10 08:06:23;;;;;;;9.60;5.70;;;;;;;17.08;48.59;98646.03;104963;1287;24332;-82
2022/05/10 08:08:51;;;;;;;11.00;5.00;;;;;;;17.20;48.61;98646.95;105267;1287;25521;-82
2022/05/10 08:11:24;;;;;;;9.50;5.30;;;;;;;17.29;48.52;98644.20;104971;1290;22544;-81
2022/05/10 08:13:52;;;;;;;12.00;5.40;;;;;;;17.40;48.40;98644.84;105310;1287;25421;-83
2022/05/10 08:16:22;;;;;;;7.60;5.30;;;;;;;17.50;48.27;98640.96;105413;1287;22598;-88
2022/05/10 08:18:50;;;;;;;9.80;5.20;;;;;;;17.57;48.07;98637.38;105433;1287;22703;-86
2022/05/10 08:21:19;;;;;;;11.90;4.90;;;;;;;17.67;47.77;98637.88;105053;1288;23242;-86
2022/05/10 08:23:49;;;;;;;8.60;5.00;;;;;;;17.78;47.72;98637.21;105114;1287;22666;-86
2022/05/10 08:26:17;;;;;;;10.10;5.40;;;;;;;17.89;47.65;98634.86;105520;1287;22595;-90
2022/05/10 08:28:45;;;;;;;9.50;4.60;;;;;;;18.02;47.54;98632.44;105721;1287;25369;-90
2022/05/10 08:31:14;;;;;;;7.90;4.80;;;;;;;18.16;47.47;98636.76;105223;1287;24368;-90
2022/05/10 08:33:44;;;;;;;7.80;5.60;;;;;;;18.27;47.14;98631.80;105229;1287;22635;-91
2022/05/10 08:36:12;;;;;;;9.80;4.70;;;;;;;18.35;46.75;98633.94;105275;1287;22697;-90
2022/05/10 08:38:41;;;;;;;12.90;5.20;;;;;;;18.41;46.56;98634.52;105729;1287;22692;-89
2022/05/10 08:41:29;;;;;;;10.30;6.20;;;;;;;18.48;46.29;98633.08;105597;1287;22563;-89
2022/05/10 08:44:06;;;;;;;6.80;5.10;;;;;;;18.54;46.12;98632.05;105676;1287;22991;-90
2022/05/10 08:46:41;;;;;;;8.20;4.40;;;;;;;18.66;45.73;98627.83;105327;1287;22703;-91
2022/05/10 08:49:19;;;;;;;7.40;3.90;;;;;;;18.79;45.42;98632.78;105615;1287;23061;-92
2022/05/10 08:51:48;;;;;;;8.70;4.40;;;;;;;18.93;44.86;98631.85;105444;1287;22786;-90
2022/05/10 08:54:16;;;;;;;7.80;4.50;;;;;;;19.06;44.76;98632.64;105333;1287;22572;-88
2022/05/10 08:56:48;;;;;;;7.80;4.70;;;;;;;19.16;44.17;98632.81;105619;1287;25751;-88
2022/05/10 08:59:36;;;;;;;7.50;4.30;;;;;;;19.17;44.09;98625.98;107389;1287;22550;-86
2022/05/10 09:02:15;;;;;;;7.90;4.20;;;;;;;19.15;41.49;98623.34;105815;1287;24436;-88
2022/05/10 09:04:51;;;;;;;7.80;4.20;;;;;;;19.12;42.56;98619.58;105253;1287;23938;-87
2022/05/10 09:07:36;;;;;;;8.30;4.70;;;;;;;19.16;42.66;98621.40;105773;1287;25348;-88
2022/05/10 09:10:15;;;;;;;6.60;4.20;;;;;;;19.22;42.98;98618.12;108427;1287;22585;-88
2022/05/10 09:12:58;;;;;;;7.10;4.30;;;;;;;19.33;43.24;98614.66;108313;1286;23106;-85
2022/05/10 09:15:29;;;;;;;8.70;4.80;;;;;;;19.44;42.63;98613.17;107897;1286;22540;-88
2022/05/10 09:18:05;;;;;;;11.20;4.60;;;;;;;19.52;42.75;98613.12;106050;1287;22671;-89
2022/05/10 09:20:36;;;;;;;7.10;4.40;;;;;;;19.64;42.56;98616.39;106057;1287;23235;-89
2022/05/10 09:23:24;;;;;;;7.10;4.30;;;;;;;19.69;42.34;98609.08;106192;1287;22687;-90
2022/05/10 09:25:56;;;;;;;9.20;4.60;;;;;;;19.71;41.97;98604.94;105722;1287;22700;-89
2022/05/10 09:28:53;;;;;;;10.60;4.50;;;;;;;19.77;42.00;98605.58;107123;1288;22562;-91
2022/05/10 09:34:47;;;;;;;9.70;4.60;;;;;;;19.97;41.76;98591.29;105292;1287;22569;-88
2022/05/10 09:37:30;;;;;;;8.00;4.60;;;;;;;20.11;41.37;98592.66;104932;1290;25309;-90
2022/05/10 09:39:58;;;;;;;9.10;4.80;;;;;;;20.22;41.18;98589.94;105205;1287;22574;-90
2022/05/10 09:42:37;;;;;;;10.30;4.30;;;;;;;20.27;41.22;98583.98;106482;1287;22968;-90
2022/05/10 09:45:17;;;;;;;6.80;4.40;;;;;;;20.37;41.46;98586.39;107833;1287;22664;-90
2022/05/10 09:48:09;;;;;;;8.10;4.60;;;;;;;20.58;41.27;98578.88;106799;1287;23499;-90
2022/05/10 09:50:41;;;;;;;8.70;4.40;;;;;;;20.77;40.98;98583.95;105321;1287;22596;-91
2022/05/10 09:53:11;;;;;;;9.40;5.00;;;;;;;20.85;40.73;98576.81;105237;1287;25331;-90
2022/05/10 09:55:50;;;;;;;6.30;4.10;;;;;;;20.92;40.78;98575.19;105304;1287;24222;-90
2022/05/10 09:58:25;;;;;;;7.70;3.90;;;;;;;21.06;40.78;98573.45;105444;1287;22768;-88
2022/05/10 10:00:54;;;;;;;7.90;4.80;;;;;;;21.16;40.36;98573.16;105444;1287;25444;-90
2022/05/10 10:03:29;;;;;;;6.90;4.60;;;;;;;21.23;39.96;98568.02;105422;1287;22593;-89
2022/05/10 10:06:30;;;;;;;8.40;4.20;;;;;;;21.21;39.55;98559.98;105473;1287;24398;-90
2022/05/10 10:08:58;;;;;;;6.50;4.30;;;;;;;21.16;39.51;98561.73;104555;1293;22613;-90
2022/05/10 10:11:29;;;;;;;9.60;4.80;;;;;;;21.03;39.37;98562.08;104447;1293;22751;-92
2022/05/10 10:14:10;;;;;;;7.70;4.30;;;;;;;20.96;39.22;98559.86;104377;1294;22572;-91
2022/05/10 10:16:51;;;;;;;8.90;4.80;;;;;;;20.89;39.11;98555.48;104206;1293;22580;-90
2022/05/10 10:19:22;;;;;;;11.20;5.00;;;;;;;20.82;39.15;98555.77;104141;1293;25808;-89
2022/05/10 10:22:01;;;;;;;9.60;5.30;;;;;;;20.92;39.31;98553.68;104376;1293;22713;-90
2022/05/10 10:24:40;;;;;;;9.70;5.50;;;;;;;21.04;39.15;98550.86;104431;1293;24244;-90
2022/05/10 10:27:17;;;;;;;12.00;4.60;;;;;;;21.00;39.11;98546.53;104432;1294;22752;-89
2022/05/10 10:29:51;;;;;;;9.20;4.20;;;;;;;21.00;38.56;98545.80;104392;1293;25348;-91
2022/05/10 10:32:28;;;;;;;7.30;4.90;;;;;;;21.07;38.22;98538.50;104303;1293;22655;-91
2022/05/10 10:35:14;;;;;;;7.50;4.70;;;;;;;21.08;38.36;98536.09;104417;1294;25404;-91
2022/05/10 10:38:13;;;;;;;7.50;4.30;;;;;;;21.03;38.10;98532.66;104677;1294;24357;-90
2022/05/10 10:40:54;;;;;;;9.10;4.40;;;;;;;20.99;37.78;98525.43;105291;1293;22553;-88
2022/05/10 10:43:31;;;;;;;8.80;4.50;;;;;;;21.05;37.89;98519.64;106480;1295;22597;-90
2022/05/10 10:46:27;;;;;;;12.30;4.70;;;;;;;21.22;38.05;98516.31;105541;1287;22906;-90
2022/05/10 10:48:59;;;;;;;7.10;3.90;;;;;;;21.37;37.51;98513.94;105360;1287;24839;-92
2022/05/10 10:51:31;;;;;;;11.10;4.40;;;;;;;21.49;37.52;98513.06;105256;1287;25931;-89
2022/05/10 10:54:01;;;;;;;10.00;3.90;;;;;;;21.51;36.72;98504.89;105451;1287;24245;-91
2022/05/10 10:56:45;;;;;;;9.10;4.30;;;;;;;21.56;36.89;98499.14;105595;1287;26685;-84
2022/05/10 10:59:48;;;;;;;10.50;4.40;;;;;;;21.69;37.11;98498.96;105407;1287;24199;-89
2022/05/10 11:02:54;;;;;;;7.10;4.40;;;;;;;21.89;36.51;98506.13;106306;1287;22553;-88
2022/05/10 11:05:47;;;;;;;7.60;3.80;;;;;;;21.96;36.35;98502.36;105356;1287;24272;-91
2022/05/10 11:08:28;;;;;;;10.80;3.90;;;;;;;22.09;36.65;98498.62;105428;1287;25417;-89
2022/05/10 11:11:26;;;;;;;7.20;3.70;;;;;;;22.22;36.55;98496.65;105403;1287;22566;-91
2022/05/10 11:14:06;;;;;;;9.50;4.40;;;;;;;22.43;36.02;98490.41;105416;1287;22553;-90
2022/05/10 11:16:41;;;;;;;8.40;4.00;;;;;;;22.49;35.98;98484.23;105438;1287;26644;-90
2022/05/10 11:19:54;;;;;;;7.90;4.30;;;;;;;22.59;36.10;98480.19;105401;1287;22683;-88
2022/05/10 11:22:37;;;;;;;9.40;4.40;;;;;;;22.78;36.02;98475.83;105190;1287;22849;-89
2022/05/10 11:25:14;;;;;;;11.70;4.10;;;;;;;22.86;35.17;98471.40;105225;1287;22553;-88
2022/05/10 11:28:15;;;;;;;9.30;4.50;;;;;;;22.82;35.07;98472.29;105488;1287;23963;-90
2022/05/10 11:31:02;;;;;;;7.20;4.00;;;;;;;22.81;34.91;98462.91;105840;1287;24214;-92
2022/05/10 11:33:49;;;;;;;9.40;3.90;;;;;;;22.95;34.94;98460.27;105708;1287;23223;-89
2022/05/10 11:36:51;;;;;;;10.00;3.70;;;;;;;23.10;34.59;98460.54;105518;1287;25210;-90
2022/05/10 11:39:55;;;;;;;10.00;6.60;;;;;;;23.30;34.88;98453.16;104791;1294;25955;-91
2022/05/10 11:42:34;;;;;;;8.70;5.00;;;;;;;23.40;33.83;98447.23;104776;1294;24223;-90
2022/05/10 11:45:46;;;;;;;7.40;4.60;;;;;;;23.46;34.48;98443.09;104929;1293;22510;-90
2022/05/10 11:49:03;;;;;;;10.90;5.90;;;;;;;23.59;33.73;98444.21;107040;1300;22612;-85
2022/05/10 11:52:14;;;;;;;8.30;5.40;;;;;;;23.61;33.62;98443.52;105748;1300;22644;-93
2022/05/10 11:56:01;;;;;;;16.20;4.80;;;;;;;23.69;33.77;98437.77;104896;1303;22683;-91
2022/05/10 11:58:34;;;;;;;7.30;3.90;;;;;;;23.58;33.28;98437.20;104211;1303;25405;-88
2022/05/10 12:01:30;;;;;;;5.50;3.40;;;;;;;23.61;33.17;98437.88;104079;1303;22633;-80
2022/05/10 12:03:58;;;;;;;8.40;4.40;;;;;;;23.74;32.74;98434.95;103916;1303;22602;-79
2022/05/10 12:06:26;;;;;;;8.20;3.90;;;;;;;23.72;32.45;98431.70;103904;1303;24467;-79
2022/05/10 12:09:01;;;;;;;9.40;4.70;;;;;;;23.83;32.38;98430.48;103869;1304;22577;-78